sensor_id;sensor_type;location;lat;lon;timestamp;pressure;altitude;pressure_sealevel;temperature;humidity
31337;BME280;22846;42.654;23.314;2023-02-21T00:01:53;94869.28;;;23.92;45.86
31337;BME280;22846;42.654;23.314;2023-02-21T00:04:38;94865.00;;;23.91;45.64
31337;BME280;22846;42.654;23.314;2023-02-21T00:07:22;94860.00;;;23.89;45.92
31337;BME280;22846;42.654;23.314;2023-02-21T00:10:10;94877.56;;;23.88;45.78
31337;BME280;22846;42.654;23.314;2023-02-21T00:12:54;94876.81;;;23.88;46.03
31337;BME280;22846;42.654;23.314;2023-02-21T00:15:38;94872.53;;;23.87;45.98
31337;BME280;22846;42.654;23.314;2023-02-21T00:18:22;94869.47;;;23.85;45.70
31337;BME280;22846;42.654;23.314;2023-02-21T00:21:06;94869.13;;;23.83;45.67
31337;BME280;22846;42.654;23.314;2023-02-21T00:23:50;94876.19;;;23.80;46.22
31337;BME280;22846;42.654;23.314;2023-02-21T00:26:34;94865.19;;;23.84;46.07
31337;BME280;22846;42.654;23.314;2023-02-21T00:29:18;94855.16;;;23.81;46.00
31337;BME280;22846;42.654;23.314;2023-02-21T00:32:02;94849.34;;;23.79;45.86
31337;BME280;22846;42.654;23.314;2023-02-21T00:34:46;94849.69;;;23.81;46.24
31337;BME280;22846;42.654;23.314;2023-02-21T00:37:30;94856.00;;;23.78;46.19
31337;BME280;22846;42.654;23.314;2023-02-21T00:40:14;94842.69;;;23.80;46.26
31337;BME280;22846;42.654;23.314;2023-02-21T00:42:59;94843.88;;;23.79;45.70
31337;BME280;22846;42.654;23.314;2023-02-21T00:45:43;94846.72;;;23.75;46.12
31337;BME280;22846;42.654;23.314;2023-02-21T00:48:27;94849.00;;;23.77;45.77
31337;BME280;22846;42.654;23.314;2023-02-21T00:51:11;94855.66;;;23.76;46.27
31337;BME280;22846;42.654;23.314;2023-02-21T00:53:55;94845.53;;;23.76;46.37
31337;BME280;22846;42.654;23.314;2023-02-21T00:56:39;94848.28;;;23.73;45.94
31337;BME280;22846;42.654;23.314;2023-02-21T00:59:23;94826.44;;;23.73;45.94
31337;BME280;22846;42.654;23.314;2023-02-21T01:02:08;94831.16;;;23.72;46.05
31337;BME280;22846;42.654;23.314;2023-02-21T01:04:53;94831.25;;;23.69;46.36
31337;BME280;22846;42.654;23.314;2023-02-21T01:07:37;94795.16;;;23.61;46.27
31337;BME280;22846;42.654;23.314;2023-02-21T01:10:21;94810.16;;;23.69;46.17
31337;BME280;22846;42.654;23.314;2023-02-21T01:13:05;94802.31;;;23.71;46.15
31337;BME280;22846;42.654;23.314;2023-02-21T01:15:48;94802.75;;;23.70;46.13
31337;BME280;22846;42.654;23.314;2023-02-21T01:18:33;94803.50;;;23.70;45.96
31337;BME280;22846;42.654;23.314;2023-02-21T01:21:18;94790.31;;;23.69;46.25
31337;BME280;22846;42.654;23.314;2023-02-21T01:24:04;94788.78;;;23.68;46.36
31337;BME280;22846;42.654;23.314;2023-02-21T01:26:48;94783.06;;;23.62;46.32
31337;BME280;22846;42.654;23.314;2023-02-21T01:29:32;94772.06;;;23.66;45.91
31337;BME280;22846;42.654;23.314;2023-02-21T01:32:17;94763.81;;;23.53;46.35
31337;BME280;22846;42.654;23.314;2023-02-21T01:35:01;94780.34;;;23.62;46.18
31337;BME280;22846;42.654;23.314;2023-02-21T01:37:45;94799.34;;;23.66;46.15
31337;BME280;22846;42.654;23.314;2023-02-21T01:40:29;94772.25;;;23.59;46.38
31337;BME280;22846;42.654;23.314;2023-02-21T01:43:15;94795.84;;;23.65;46.26
31337;BME280;22846;42.654;23.314;2023-02-21T01:45:59;94795.06;;;23.65;46.30
31337;BME280;22846;42.654;23.314;2023-02-21T01:48:43;94767.22;;;23.57;46.59
31337;BME280;22846;42.654;23.314;2023-02-21T01:51:32;94777.25;;;23.60;46.13
31337;BME280;22846;42.654;23.314;2023-02-21T01:54:18;94783.84;;;23.63;46.27
31337;BME280;22846;42.654;23.314;2023-02-21T01:57:05;94770.28;;;23.59;46.54
31337;BME280;22846;42.654;23.314;2023-02-21T01:59:51;94759.28;;;23.63;46.64
31337;BME280;22846;42.654;23.314;2023-02-21T02:02:45;94765.16;;;23.61;46.25
31337;BME280;22846;42.654;23.314;2023-02-21T02:05:31;94746.00;;;23.49;46.09
31337;BME280;22846;42.654;23.314;2023-02-21T02:08:17;94749.56;;;23.62;46.58
31337;BME280;22846;42.654;23.314;2023-02-21T02:14:30;94755.44;;;23.60;46.67
31337;BME280;22846;42.654;23.314;2023-02-21T02:22:29;94745.72;;;23.59;46.34
31337;BME280;22846;42.654;23.314;2023-02-21T02:25:22;94730.88;;;23.60;46.10
31337;BME280;22846;42.654;23.314;2023-02-21T02:27:59;94748.03;;;23.61;46.23
31337;BME280;22846;42.654;23.314;2023-02-21T02:36:14;94727.84;;;23.58;46.58
31337;BME280;22846;42.654;23.314;2023-02-21T02:38:53;94727.84;;;23.58;46.37
31337;BME280;22846;42.654;23.314;2023-02-21T02:41:48;94747.69;;;23.59;46.52
31337;BME280;22846;42.654;23.314;2023-02-21T02:44:30;94735.25;;;23.58;46.74
31337;BME280;22846;42.654;23.314;2023-02-21T02:47:00;94738.75;;;23.58;46.44
31337;BME280;22846;42.654;23.314;2023-02-21T02:49:28;94733.31;;;23.58;46.45
31337;BME280;22846;42.654;23.314;2023-02-21T02:52:05;94719.66;;;23.58;46.81
31337;BME280;22846;42.654;23.314;2023-02-21T02:54:31;94739.50;;;23.59;46.36
31337;BME280;22846;42.654;23.314;2023-02-21T02:56:58;94734.81;;;23.59;46.44
31337;BME280;22846;42.654;23.314;2023-02-21T02:59:26;94723.88;;;23.59;46.46
31337;BME280;22846;42.654;23.314;2023-02-21T03:02:17;94737.53;;;23.59;46.32
31337;BME280;22846;42.654;23.314;2023-02-21T03:05:19;94735.59;;;23.60;46.68
31337;BME280;22846;42.654;23.314;2023-02-21T03:15:26;94737.97;;;23.58;46.56
31337;BME280;22846;42.654;23.314;2023-02-21T03:18:01;94726.41;;;23.54;46.54
31337;BME280;22846;42.654;23.314;2023-02-21T03:20:29;94742.22;;;23.59;46.44
31337;BME280;22846;42.654;23.314;2023-02-21T03:22:57;94726.41;;;23.54;46.50
31337;BME280;22846;42.654;23.314;2023-02-21T03:25:23;94723.59;;;23.57;46.38
31337;BME280;22846;42.654;23.314;2023-02-21T03:27:50;94724.34;;;23.58;46.34
31337;BME280;22846;42.654;23.314;2023-02-21T03:30:18;94724.34;;;23.58;46.55
31337;BME280;22846;42.654;23.314;2023-02-21T03:32:54;94717.34;;;23.57;46.29
31337;BME280;22846;42.654;23.314;2023-02-21T03:35:20;94711.56;;;23.55;46.29
31337;BME280;22846;42.654;23.314;2023-02-21T03:37:49;94698.25;;;23.57;46.15
31337;BME280;22846;42.654;23.314;2023-02-21T03:40:18;94709.94;;;23.57;46.60
31337;BME280;22846;42.654;23.314;2023-02-21T03:42:44;94708.50;;;23.53;46.23
31337;BME280;22846;42.654;23.314;2023-02-21T03:45:10;94715.81;;;23.56;46.25
31337;BME280;22846;42.654;23.314;2023-02-21T03:47:36;94699.97;;;23.51;46.75
31337;BME280;22846;42.654;23.314;2023-02-21T03:50:01;94693.75;;;23.50;46.50
31337;BME280;22846;42.654;23.314;2023-02-21T03:52:29;94707.41;;;23.50;46.37
31337;BME280;22846;42.654;23.314;2023-02-21T03:54:54;94730.66;;;23.55;46.51
31337;BME280;22846;42.654;23.314;2023-02-21T03:57:20;94716.34;;;23.51;46.23
31337;BME280;22846;42.654;23.314;2023-02-21T03:59:45;94718.53;;;23.56;46.73
31337;BME280;22846;42.654;23.314;2023-02-21T04:02:11;94726.81;;;23.52;46.55
31337;BME280;22846;42.654;23.314;2023-02-21T04:04:36;94722.53;;;23.51;46.32
31337;BME280;22846;42.654;23.314;2023-02-21T04:07:01;94715.06;;;23.55;46.49
31337;BME280;22846;42.654;23.314;2023-02-21T04:09:27;94726.28;;;23.73;46.37
31337;BME280;22846;42.654;23.314;2023-02-21T04:11:52;94722.75;;;23.89;46.01
31337;BME280;22846;42.654;23.314;2023-02-21T04:14:18;94728.81;;;24.08;45.66
31337;BME280;22846;42.654;23.314;2023-02-21T04:16:44;94742.75;;;24.26;45.51
31337;BME280;22846;42.654;23.314;2023-02-21T04:19:09;94728.81;;;24.37;45.15
31337;BME280;22846;42.654;23.314;2023-02-21T04:21:34;94761.84;;;24.55;44.71
31337;BME280;22846;42.654;23.314;2023-02-21T04:24:00;94738.16;;;24.64;44.63
31337;BME280;22846;42.654;23.314;2023-02-21T04:26:25;94760.47;;;24.75;44.29
31337;BME280;22846;42.654;23.314;2023-02-21T04:28:54;94760.91;;;24.86;43.95
31337;BME280;22846;42.654;23.314;2023-02-21T04:31:20;94759.94;;;24.92;44.13
31337;BME280;22846;42.654;23.314;2023-02-21T04:33:46;94756.56;;;25.01;43.54
31337;BME280;22846;42.654;23.314;2023-02-21T04:36:12;94761.00;;;25.07;43.86
31337;BME280;22846;42.654;23.314;2023-02-21T04:38:37;94764.91;;;25.10;43.32
31337;BME280;22846;42.654;23.314;2023-02-21T04:41:04;94758.28;;;25.20;43.31
31337;BME280;22846;42.654;23.314;2023-02-21T04:43:29;94762.03;;;25.26;43.32
31337;BME280;22846;42.654;23.314;2023-02-21T04:45:55;94769.69;;;25.31;43.04
31337;BME280;22846;42.654;23.314;2023-02-21T04:48:21;94771.09;;;25.35;43.13
31337;BME280;22846;42.654;23.314;2023-02-21T04:50:46;94757.28;;;25.39;43.06
31337;BME280;22846;42.654;23.314;2023-02-21T04:53:12;94755.97;;;25.43;43.09
31337;BME280;22846;42.654;23.314;2023-02-21T04:55:37;94766.81;;;25.47;42.98
31337;BME280;22846;42.654;23.314;2023-02-21T04:58:03;94755.00;;;25.50;42.85
31337;BME280;22846;42.654;23.314;2023-02-21T05:00:29;94743.16;;;25.53;43.18
31337;BME280;22846;42.654;23.314;2023-02-21T05:02:54;94735.72;;;25.53;43.51
31337;BME280;22846;42.654;23.314;2023-02-21T05:05:19;94738.53;;;25.62;44.12
31337;BME280;22846;42.654;23.314;2023-02-21T05:07:45;94726.38;;;25.63;44.60
31337;BME280;22846;42.654;23.314;2023-02-21T05:10:11;94719.38;;;25.62;44.58
31337;BME280;22846;42.654;23.314;2023-02-21T05:12:37;94708.09;;;25.60;45.45
31337;BME280;22846;42.654;23.314;2023-02-21T05:15:04;94715.56;;;25.60;45.65
31337;BME280;22846;42.654;23.314;2023-02-21T05:17:31;94714.03;;;25.59;45.59
31337;BME280;22846;42.654;23.314;2023-02-21T05:19:56;94701.53;;;25.58;45.90
31337;BME280;22846;42.654;23.314;2023-02-21T05:22:22;94708.22;;;25.57;45.40
31337;BME280;22846;42.654;23.314;2023-02-21T05:24:48;94702.00;;;25.56;45.40
31337;BME280;22846;42.654;23.314;2023-02-21T05:27:18;94700.88;;;25.54;45.54
31337;BME280;22846;42.654;23.314;2023-02-21T05:29:47;94696.00;;;25.49;45.61
31337;BME280;22846;42.654;23.314;2023-02-21T05:32:13;94706.38;;;25.54;45.76
31337;BME280;22846;42.654;23.314;2023-02-21T05:34:39;94703.63;;;25.54;45.61
31337;BME280;22846;42.654;23.314;2023-02-21T05:37:09;94721.28;;;25.53;45.52
31337;BME280;22846;42.654;23.314;2023-02-21T05:39:34;94716.22;;;25.51;45.43
31337;BME280;22846;42.654;23.314;2023-02-21T05:42:00;94713.59;;;25.48;40.77
31337;BME280;22846;42.654;23.314;2023-02-21T05:44:25;94715.94;;;25.37;38.84
31337;BME280;22846;42.654;23.314;2023-02-21T05:46:51;94714.34;;;25.27;39.08
31337;BME280;22846;42.654;23.314;2023-02-21T05:49:16;94729.97;;;25.14;40.72
31337;BME280;22846;42.654;23.314;2023-02-21T05:51:42;94739.06;;;25.11;41.72
31337;BME280;22846;42.654;23.314;2023-02-21T05:54:13;94739.47;;;24.97;43.07
31337;BME280;22846;42.654;23.314;2023-02-21T05:56:40;94751.28;;;24.94;43.59
31337;BME280;22846;42.654;23.314;2023-02-21T05:59:07;94741.66;;;24.89;43.35
31337;BME280;22846;42.654;23.314;2023-02-21T06:01:33;94765.63;;;24.85;44.14
31337;BME280;22846;42.654;23.314;2023-02-21T06:03:58;94766.91;;;24.81;44.34
31337;BME280;22846;42.654;23.314;2023-02-21T06:06:23;94766.25;;;24.77;44.11
31337;BME280;22846;42.654;23.314;2023-02-21T06:08:49;94760.13;;;24.73;44.20
31337;BME280;22846;42.654;23.314;2023-02-21T06:11:20;94763.28;;;24.72;44.19
31337;BME280;22846;42.654;23.314;2023-02-21T06:13:49;94768.84;;;24.68;44.34
31337;BME280;22846;42.654;23.314;2023-02-21T06:16:14;94759.91;;;24.68;45.25
31337;BME280;22846;42.654;23.314;2023-02-21T06:18:40;94757.63;;;24.66;44.59
31337;BME280;22846;42.654;23.314;2023-02-21T06:21:05;94749.84;;;24.65;45.36
31337;BME280;22846;42.654;23.314;2023-02-21T06:23:31;94763.84;;;24.67;45.58
31337;BME280;22846;42.654;23.314;2023-02-21T06:25:56;94761.09;;;24.67;45.57
31337;BME280;22846;42.654;23.314;2023-02-21T06:28:27;94763.50;;;24.65;45.85
31337;BME280;22846;42.654;23.314;2023-02-21T06:30:53;94775.53;;;24.67;45.77
31337;BME280;22846;42.654;23.314;2023-02-21T06:33:18;94770.06;;;24.67;45.81
31337;BME280;22846;42.654;23.314;2023-02-21T06:35:44;94768.09;;;24.68;45.78
31337;BME280;22846;42.654;23.314;2023-02-21T06:38:09;94759.91;;;24.68;45.20
31337;BME280;22846;42.654;23.314;2023-02-21T06:40:34;94768.84;;;24.68;45.39
31337;BME280;22846;42.654;23.314;2023-02-21T06:43:00;94777.41;;;24.70;45.53
31337;BME280;22846;42.654;23.314;2023-02-21T06:45:25;94773.13;;;24.69;45.53
31337;BME280;22846;42.654;23.314;2023-02-21T06:47:51;94773.47;;;24.71;45.18
31337;BME280;22846;42.654;23.314;2023-02-21T06:50:16;94768.75;;;24.72;45.63
31337;BME280;22846;42.654;23.314;2023-02-21T06:52:41;94765.59;;;24.73;45.51
31337;BME280;22846;42.654;23.314;2023-02-21T06:55:07;94790.53;;;24.75;45.41
31337;BME280;22846;42.654;23.314;2023-02-21T06:57:32;94764.41;;;24.74;45.05
31337;BME280;22846;42.654;23.314;2023-02-21T06:59:58;94778.38;;;24.76;45.21
31337;BME280;22846;42.654;23.314;2023-02-21T07:02:23;94760.47;;;24.75;44.83
31337;BME280;22846;42.654;23.314;2023-02-21T07:04:49;94762.09;;;24.73;44.93
31337;BME280;22846;42.654;23.314;2023-02-21T07:07:15;94762.31;;;24.78;44.87
31337;BME280;22846;42.654;23.314;2023-02-21T07:09:40;94765.06;;;24.78;45.07
31337;BME280;22846;42.654;23.314;2023-02-21T07:12:06;94760.47;;;24.75;45.19
31337;BME280;22846;42.654;23.314;2023-02-21T07:14:33;94768.34;;;24.73;44.86
31337;BME280;22846;42.654;23.314;2023-02-21T07:16:58;94768.22;;;24.77;45.01
31337;BME280;22846;42.654;23.314;2023-02-21T07:19:24;94767.25;;;24.83;44.56
31337;BME280;22846;42.654;23.314;2023-02-21T07:21:49;94770.84;;;24.80;44.95
31337;BME280;22846;42.654;23.314;2023-02-21T07:24:14;94773.13;;;24.81;44.63
31337;BME280;22846;42.654;23.314;2023-02-21T07:26:40;94761.78;;;24.71;44.80
31337;BME280;22846;42.654;23.314;2023-02-21T07:29:05;94759.16;;;24.79;45.33
31337;BME280;22846;42.654;23.314;2023-02-21T07:31:31;94769.75;;;24.77;45.21
31337;BME280;22846;42.654;23.314;2023-02-21T07:33:57;94754.56;;;24.77;45.28
31337;BME280;22846;42.654;23.314;2023-02-21T07:36:23;94749.22;;;24.73;45.03
31337;BME280;22846;42.654;23.314;2023-02-21T07:38:48;94737.94;;;24.71;45.16
31337;BME280;22846;42.654;23.314;2023-02-21T07:41:14;94757.41;;;24.73;44.67
31337;BME280;22846;42.654;23.314;2023-02-21T07:43:40;94736.28;;;24.61;44.60
31337;BME280;22846;42.654;23.314;2023-02-21T07:46:10;94737.25;;;24.67;44.60
31337;BME280;22846;42.654;23.314;2023-02-21T07:48:36;94737.94;;;24.71;45.00
31337;BME280;22846;42.654;23.314;2023-02-21T07:51:01;94719.78;;;24.52;45.10
31337;BME280;22846;42.654;23.314;2023-02-21T07:53:27;94741.13;;;24.70;44.93
31337;BME280;22846;42.654;23.314;2023-02-21T07:55:53;94732.47;;;24.71;44.94
31337;BME280;22846;42.654;23.314;2023-02-21T07:58:18;94737.25;;;24.67;45.04
31337;BME280;22846;42.654;23.314;2023-02-21T08:00:44;94736.06;;;24.68;44.78
31337;BME280;22846;42.654;23.314;2023-02-21T08:03:12;94735.75;;;24.66;44.90
31337;BME280;22846;42.654;23.314;2023-02-21T08:05:39;94723.81;;;24.60;45.10
31337;BME280;22846;42.654;23.314;2023-02-21T08:08:08;94725.69;;;24.63;44.53
31337;BME280;22846;42.654;23.314;2023-02-21T08:10:34;94733.13;;;24.63;44.87
31337;BME280;22846;42.654;23.314;2023-02-21T08:13:00;94728.09;;;24.61;45.02
31337;BME280;22846;42.654;23.314;2023-02-21T08:15:25;94723.06;;;24.60;44.94
31337;BME280;22846;42.654;23.314;2023-02-21T08:17:50;94728.97;;;24.58;45.53
31337;BME280;22846;42.654;23.314;2023-02-21T08:20:17;94723.19;;;24.56;44.89
31337;BME280;22846;42.654;23.314;2023-02-21T08:22:43;94742.41;;;24.53;44.92
31337;BME280;22846;42.654;23.314;2023-02-21T08:25:12;94734.63;;;24.51;45.18
31337;BME280;22846;42.654;23.314;2023-02-21T08:27:39;94722.94;;;24.51;45.33
31337;BME280;22846;42.654;23.314;2023-02-21T08:30:06;94724.81;;;24.54;44.77
31337;BME280;22846;42.654;23.314;2023-02-21T08:32:33;94720.97;;;24.51;45.52
31337;BME280;22846;42.654;23.314;2023-02-21T08:34:59;94709.41;;;24.47;45.26
31337;BME280;22846;42.654;23.314;2023-02-21T08:37:25;94716.69;;;24.50;44.72
31337;BME280;22846;42.654;23.314;2023-02-21T08:39:57;94700.00;;;24.48;45.06
31337;BME280;22846;42.654;23.314;2023-02-21T08:42:22;94714.41;;;24.49;45.33
31337;BME280;22846;42.654;23.314;2023-02-21T08:44:48;94709.41;;;24.47;45.44
31337;BME280;22846;42.654;23.314;2023-02-21T08:47:15;94703.16;;;24.47;45.14
31337;BME280;22846;42.654;23.314;2023-02-21T08:49:45;94716.81;;;24.47;45.05
31337;BME280;22846;42.654;23.314;2023-02-21T08:52:12;94706.00;;;24.43;45.36
31337;BME280;22846;42.654;23.314;2023-02-21T08:54:39;94711.44;;;24.43;45.17
31337;BME280;22846;42.654;23.314;2023-02-21T08:57:04;94715.72;;;24.44;45.13
31337;BME280;22846;42.654;23.314;2023-02-21T08:59:30;94709.06;;;24.45;44.99
31337;BME280;22846;42.654;23.314;2023-02-21T09:01:58;94697.78;;;24.43;44.66
31337;BME280;22846;42.654;23.314;2023-02-21T09:04:24;94710.66;;;24.43;44.82
31337;BME280;22846;42.654;23.314;2023-02-21T09:06:51;94702.13;;;24.41;44.40
31337;BME280;22846;42.654;23.314;2023-02-21T09:09:16;94708.34;;;24.41;44.77
31337;BME280;22846;42.654;23.314;2023-02-21T09:11:42;94707.16;;;24.42;44.38
31337;BME280;22846;42.654;23.314;2023-02-21T09:14:11;94698.66;;;24.40;44.32
31337;BME280;22846;42.654;23.314;2023-02-21T09:16:37;94704.97;;;24.37;44.37
31337;BME280;22846;42.654;23.314;2023-02-21T09:19:03;94704.53;;;24.39;44.70
31337;BME280;22846;42.654;23.314;2023-02-21T09:21:31;94692.84;;;24.38;44.73
31337;BME280;22846;42.654;23.314;2023-02-21T09:23:57;94687.38;;;24.38;44.65
31337;BME280;22846;42.654;23.314;2023-02-21T09:26:23;94687.38;;;24.38;44.38
31337;BME280;22846;42.654;23.314;2023-02-21T09:28:52;94691.31;;;24.37;44.15
31337;BME280;22846;42.654;23.314;2023-02-21T09:31:18;94686.19;;;24.39;44.24
31337;BME280;22846;42.654;23.314;2023-02-21T09:33:44;94682.69;;;24.39;44.39
31337;BME280;22846;42.654;23.314;2023-02-21T09:36:10;94674.06;;;24.40;44.29
31337;BME280;22846;42.654;23.314;2023-02-21T09:38:36;94670.66;;;24.36;44.18
31337;BME280;22846;42.654;23.314;2023-02-21T09:41:08;94672.63;;;24.36;44.08
31337;BME280;22846;42.654;23.314;2023-02-21T09:43:38;94670.09;;;24.41;44.04
31337;BME280;22846;42.654;23.314;2023-02-21T09:46:12;94661.50;;;24.43;44.19
31337;BME280;22846;42.654;23.314;2023-02-21T09:48:40;94665.34;;;24.45;44.49
31337;BME280;22846;42.654;23.314;2023-02-21T09:51:09;94662.63;;;24.45;44.45
31337;BME280;22846;42.654;23.314;2023-02-21T09:53:41;94660.63;;;24.46;43.94
31337;BME280;22846;42.654;23.314;2023-02-21T09:56:20;94648.97;;;24.45;44.41
31337;BME280;22846;42.654;23.314;2023-02-21T09:58:49;94646.56;;;24.47;44.34
31337;BME280;22846;42.654;23.314;2023-02-21T10:07:14;94633.22;;;24.49;43.86
31337;BME280;22846;42.654;23.314;2023-02-21T10:09:48;94643.03;;;24.59;43.75
31337;BME280;22846;42.654;23.314;2023-02-21T10:12:29;94627.94;;;24.67;43.78
31337;BME280;22846;42.654;23.314;2023-02-21T10:20:53;94618.34;;;24.75;43.77
31337;BME280;22846;42.654;23.314;2023-02-21T10:23:46;94605.56;;;24.72;43.79
31337;BME280;22846;42.654;23.314;2023-02-21T10:26:22;94601.06;;;24.78;43.61
31337;BME280;22846;42.654;23.314;2023-02-21T10:28:49;94592.09;;;24.77;43.54
31337;BME280;22846;42.654;23.314;2023-02-21T10:31:25;94605.66;;;24.81;43.36
31337;BME280;22846;42.654;23.314;2023-02-21T10:33:54;94602.47;;;24.82;43.81
31337;BME280;22846;42.654;23.314;2023-02-21T10:36:21;94590.34;;;24.83;43.30
31337;BME280;22846;42.654;23.314;2023-02-21T10:41:37;94580.28;;;24.80;43.73
31337;BME280;22846;42.654;23.314;2023-02-21T10:44:09;94565.09;;;24.79;43.49
31337;BME280;22846;42.654;23.314;2023-02-21T10:46:51;94546.97;;;24.73;43.50
31337;BME280;22846;42.654;23.314;2023-02-21T10:49:27;94558.19;;;24.87;43.71
31337;BME280;22846;42.654;23.314;2023-02-21T10:52:19;94568.69;;;24.89;43.63
31337;BME280;22846;42.654;23.314;2023-02-21T10:55:01;94557.00;;;24.88;43.17
31337;BME280;22846;42.654;23.314;2023-02-21T10:57:30;94553.47;;;24.88;43.26
31337;BME280;22846;42.654;23.314;2023-02-21T10:59:56;94546.47;;;24.87;43.32
31337;BME280;22846;42.654;23.314;2023-02-21T11:02:31;94537.84;;;24.88;43.66
31337;BME280;22846;42.654;23.314;2023-02-21T11:05:13;94532.69;;;24.90;43.32
31337;BME280;22846;42.654;23.314;2023-02-21T11:07:41;94521.63;;;24.94;43.51
31337;BME280;22846;42.654;23.314;2023-02-21T11:10:32;94520.44;;;24.95;43.44
31337;BME280;22846;42.654;23.314;2023-02-21T11:15:27;94520.00;;;24.96;43.19
31337;BME280;22846;42.654;23.314;2023-02-21T11:18:12;94515.28;;;24.97;43.11
31337;BME280;22846;42.654;23.314;2023-02-21T11:20:38;94510.47;;;25.01;42.95
31337;BME280;22846;42.654;23.314;2023-02-21T11:23:04;94507.91;;;25.06;43.28
31337;BME280;22846;42.654;23.314;2023-02-21T11:25:37;94500.03;;;25.08;43.11
31337;BME280;22846;42.654;23.314;2023-02-21T11:30:31;94488.69;;;25.10;42.80
31337;BME280;22846;42.654;23.314;2023-02-21T11:32:59;94489.00;;;25.12;42.71
31337;BME280;22846;42.654;23.314;2023-02-21T11:35:26;94487.78;;;25.13;42.95
31337;BME280;22846;42.654;23.314;2023-02-21T11:37:55;94482.19;;;25.16;42.87
31337;BME280;22846;42.654;23.314;2023-02-21T11:40:43;94474.63;;;25.20;43.17
31337;BME280;22846;42.654;23.314;2023-02-21T11:43:19;94476.47;;;25.23;42.82
31337;BME280;22846;42.654;23.314;2023-02-21T11:46:03;94459.75;;;25.21;42.90
31337;BME280;22846;42.654;23.314;2023-02-21T11:48:37;94465.22;;;25.21;42.70
31337;BME280;22846;42.654;23.314;2023-02-21T11:51:07;94459.75;;;25.21;42.55
31337;BME280;22846;42.654;23.314;2023-02-21T11:53:41;94454.91;;;25.25;42.96
31337;BME280;22846;42.654;23.314;2023-02-21T11:59:07;94456.28;;;25.30;42.28
31337;BME280;22846;42.654;23.314;2023-02-21T12:04:23;94441.41;;;25.31;42.34
31337;BME280;22846;42.654;23.314;2023-02-21T12:07:11;94445.34;;;25.30;42.60
31337;BME280;22846;42.654;23.314;2023-02-21T12:12:46;94432.31;;;25.34;42.82
31337;BME280;22846;42.654;23.314;2023-02-21T12:15:42;94427.59;;;25.34;42.39
31337;BME280;22846;42.654;23.314;2023-02-21T12:26:57;94405.09;;;25.30;42.73
31337;BME280;22846;42.654;23.314;2023-02-21T12:32:48;94398.28;;;25.35;42.67
31337;BME280;22846;42.654;23.314;2023-02-21T12:46:36;94399.03;;;25.35;42.33
31337;BME280;22846;42.654;23.314;2023-02-21T12:51:35;94387.34;;;25.35;42.56
31337;BME280;22846;42.654;23.314;2023-02-21T12:54:47;94390.69;;;25.39;42.65
31337;BME280;22846;42.654;23.314;2023-02-21T12:57:22;94394.97;;;25.40;42.48
31337;BME280;22846;42.654;23.314;2023-02-21T12:59:59;94386.28;;;25.41;42.14
31337;BME280;22846;42.654;23.314;2023-02-21T13:05:44;94382.22;;;25.46;42.88
31337;BME280;22846;42.654;23.314;2023-02-21T13:08:18;94380.25;;;25.46;42.19
31337;BME280;22846;42.654;23.314;2023-02-21T13:13:28;94374.97;;;25.52;42.56
31337;BME280;22846;42.654;23.314;2023-02-21T13:15:57;94369.78;;;25.54;42.66
31337;BME280;22846;42.654;23.314;2023-02-21T13:18:28;94361.88;;;25.56;42.00
31337;BME280;22846;42.654;23.314;2023-02-21T13:29:01;94360.84;;;25.62;42.44
31337;BME280;22846;42.654;23.314;2023-02-21T13:31:35;94351.44;;;25.63;42.02
31337;BME280;22846;42.654;23.314;2023-02-21T13:34:05;94346.41;;;25.62;42.56
31337;BME280;22846;42.654;23.314;2023-02-21T13:36:42;94348.41;;;25.70;42.10
31337;BME280;22846;42.654;23.314;2023-02-21T13:41:37;94336.09;;;25.74;41.69
31337;BME280;22846;42.654;23.314;2023-02-21T13:44:16;94348.13;;;25.77;42.05
31337;BME280;22846;42.654;23.314;2023-02-21T13:57:36;94330.53;;;25.87;41.87
31337;BME280;22846;42.654;23.314;2023-02-21T14:03:01;94322.94;;;25.91;42.00
31337;BME280;22846;42.654;23.314;2023-02-21T14:10:48;94319.13;;;25.97;42.11
31337;BME280;22846;42.654;23.314;2023-02-21T14:21:05;94326.78;;;26.11;35.35
31337;BME280;22846;42.654;23.314;2023-02-21T14:23:40;94324.03;;;26.11;27.36
31337;BME280;22846;42.654;23.314;2023-02-21T14:34:41;94324.47;;;26.28;31.78
31337;BME280;22846;42.654;23.314;2023-02-21T14:37:18;94322.38;;;26.41;34.82
31337;BME280;22846;42.654;23.314;2023-02-21T14:45:26;94317.78;;;26.82;35.28
31337;BME280;22846;42.654;23.314;2023-02-21T15:03:51;94313.03;;;27.01;36.07
31337;BME280;22846;42.654;23.314;2023-02-21T15:06:20;94315.91;;;26.88;36.39
31337;BME280;22846;42.654;23.314;2023-02-21T15:08:50;94304.84;;;26.74;36.75
31337;BME280;22846;42.654;23.314;2023-02-21T15:11:27;94314.31;;;26.64;37.24
31337;BME280;22846;42.654;23.314;2023-02-21T15:14:31;94311.28;;;26.53;37.58
31337;BME280;22846;42.654;23.314;2023-02-21T15:17:10;94313.69;;;26.42;38.15
31337;BME280;22846;42.654;23.314;2023-02-21T15:19:37;94312.16;;;26.32;38.08
31337;BME280;22846;42.654;23.314;2023-02-21T15:22:15;94331.78;;;26.22;38.82
31337;BME280;22846;42.654;23.314;2023-02-21T15:27:34;94316.56;;;26.03;39.29
31337;BME280;22846;42.654;23.314;2023-02-21T15:30:05;94325.06;;;25.96;39.62
31337;BME280;22846;42.654;23.314;2023-02-21T15:32:33;94321.09;;;25.88;39.52
31337;BME280;22846;42.654;23.314;2023-02-21T15:35:02;94331.41;;;25.84;39.94
31337;BME280;22846;42.654;23.314;2023-02-21T15:37:29;94327.03;;;25.77;39.99
31337;BME280;22846;42.654;23.314;2023-02-21T15:40:10;94333.66;;;25.67;40.41
31337;BME280;22846;42.654;23.314;2023-02-21T15:42:39;94335.00;;;25.63;40.21
31337;BME280;22846;42.654;23.314;2023-02-21T15:45:15;94329.69;;;25.60;40.58
31337;BME280;22846;42.654;23.314;2023-02-21T15:47:42;94333.91;;;25.52;40.76